Hauptseite
METAR-TAF:

METAR-TAF

Flughäfen :

Islay, Schottland

Islay Airport

Breite: 55-40-55N, Länge: 006-15-24W, Höhe: 16 m

Beobachtung

Neuester Wetterbericht von vor 38 Minuten, um 14:50 UTC
Wind 19 kt aus Süd/Südost, variierte zwischen Ost/Südost und Süd
Temperatur 13°C
Luftfeuchtigkeit 62%
Luftdruck 1014 hPa
Sichtweite 10 km oder mehr

METAR: EGPI 211450Z AUTO 15019KT 120V190 9999 FEW048/// 13/06 Q1014

Zeit: 16:28 (15:28 UTC)

Prognose

Neuester Wetterbericht von vor 1 Stunde und 32 Minuten, um 13:56 UTC
Gültige Prognose vom 21 um 15 UTC bis 21 um 18 UTC
Wind 16 kt aus Südost
Sichtweite 10 km oder mehr
Leicht bewölkt in der Höhe von 4000 ft

TAF: EGPI 211356Z 2115/2118 14016KT 9999 FEW040

Wetterbeobachtungen und Prognosen von mehr als 4000 Flughäfen (METAR und TAF Bericht).

Die verfügbaren Stationen werden durch gelbe und rote Markierungen auf der Karte dargestellt.

Führen Sie die Maus auf sie, um den Namen der Station zu sehen.

Darauf klicken, um die Beobachtung von Wetterbeobachtungen und Prognosen zu sehen.

Um die Karte zu ändern : klicken Sie auf den grünen Tasten mit einem schwarzen Kreuz Zum Vergrößern, auf den grünen Button mit einem Gedankenstrich zu verkleinern, oder auf die grünen Pfeile für benachbarte Karten.


METAR-TAF: